AF1E Weather Reports


Display with metric or nautical units.
time (UTC)temp
F
wind
direction
speed
MPH
gust
MPH
rain 1hr
in
rain 24hr
in
rain mn
in
humidity
%
barometer
mb
20210922021517 68 0.0 0.0 0.00 0.29 0.26 97 1017.3
20210922020520 68 0.0 0.0 0.00 0.29 0.26 97 1017.3
20210922015519 68 0.0 0.0 0.00 0.29 0.26 96 1017.3
20210922014517 68 0.0 0.0 0.00 0.29 0.26 96 1017.5
20210922013517 68 0.0 0.0 0.00 0.29 0.26 96 1017.5
20210922012517 68 0.0 0.0 0.00 0.29 0.26 96 1017.5
20210922011518 68 0.0 0.0 0.00 0.29 0.26 96 1017.5
20210922010518 68 0.0 0.0 0.00 0.29 0.26 96 1017.5
20210922005518 68 0.0 0.0 0.00 0.29 0.26 96 1017.4
20210922004520 68 0.0 0.0 0.00 0.29 0.26 96 1017.3
20210922003517 68 0.0 0.0 0.00 0.29 0.26 96 1017.2
20210922002518 68 0.0 0.0 0.00 0.29 0.26 96 1017.2
20210922001518 68 0.0 0.0 0.00 0.29 0.26 96 1017.1
20210922000517 68 0.0 0.0 0.00 0.29 0.26 96 1017.2
20210921235517 68 0.0 0.0 0.00 0.29 0.26 96 1017.2
20210921234517 68 0.0 0.0 0.00 0.29 0.26 96 1017.2
20210921233518 68 0.0 0.0 0.00 0.29 0.26 96 1017.2
20210921232519 68 0.0 0.0 0.00 0.29 0.26 96 1017.4
20210921231518 68 0.0 1.0 0.00 0.29 0.26 96 1017.3
20210921230522 68 0.0 1.0 0.00 0.29 0.26 96 1017.3
20210921225518 68 0.0 1.0 0.00 0.29 0.26 96 1017.2
20210921224523 68 0.0 1.0 0.00 0.29 0.26 96 1017.3
20210921223517 68 0.0 1.0 0.00 0.29 0.26 96 1017.5
20210921222516 68 0.0 1.0 0.00 0.29 0.26 96 1017.4
20210921221517 68 0.0 2.0 0.00 0.29 0.26 96 1017.4
20210921220516 68 0.0 1.0 0.00 0.29 0.26 96 1017.5
20210921215516 68 0.0 2.0 0.00 0.29 0.26 96 1017.5
20210921214516 68 0.0 1.0 0.00 0.29 0.26 96 1017.5
20210921213517 68 0.0 1.0 0.00 0.29 0.26 96 1017.6
20210921212519 68 0.0 0.0 0.00 0.29 0.26 96 1017.6
20210921211519 68 0.0 1.0 0.00 0.29 0.26 96 1017.7
20210921210519 68 0.0 0.0 0.01 0.29 0.26 96 1017.8
20210921205521 68 0.0 2.0 0.01 0.29 0.26 95 1017.9
20210921204520 68 0.0 1.0 0.01 0.29 0.26 96 1017.9
20210921203518 68 0.0 3.0 0.01 0.29 0.26 95 1017.9
20210921202516 68 0.0 1.0 0.01 0.29 0.26 95 1018.0
20210921201516 68 0 1.0 4.0 0.01 0.29 0.26 95 1018.1
20210921200518 68 0.0 3.0 0.01 0.28 0.25 96 1018.1
20210921195518 68 0.0 9.0 0.01 0.28 0.25 96 1018.2
20210921194516 68 0 1.0 3.0 0.01 0.28 0.25 95 1018.3
20210921193516 68 0 1.0 4.0 0.02 0.28 0.25 95 1018.3
20210921192518 68 0 1.0 3.0 0.03 0.28 0.25 96 1018.4
20210921191517 68 0.0 4.0 0.03 0.28 0.25 96 1018.5
20210921190518 68 0 1.0 5.0 0.02 0.27 0.24 95 1018.6
20210921185517 68 0 1.0 4.0 0.02 0.27 0.24 95 1018.6
20210921184516 68 0 1.0 3.0 0.02 0.27 0.24 96 1018.8
20210921183516 68 0.0 2.0 0.01 0.26 0.23 96 1019.1
20210921182516 68 0 1.0 3.0 0.01 0.25 0.22 96 1019.1
20210921181520 67 0.0 1.0 0.02 0.25 0.22 96 1019.3
20210921180516 68 0 1.0 3.0 0.03 0.25 0.22 96 1019.5
20210921175516 68 0 1.0 3.0 0.03 0.25 0.22 96 1019.6
20210921174517 67 0 1.0 2.0 0.04 0.25 0.22 96 1019.7
20210921173518 67 0.0 1.0 0.04 0.25 0.22 96 1019.8
20210921172517 67 0.0 3.0 0.04 0.24 0.21 96 1020.0
20210921171518 67 0 1.0 4.0 0.03 0.23 0.20 96 1020.0
20210921170516 67 0 1.0 4.0 0.02 0.22 0.19 96 1020.0
20210921165516 67 0 2.0 5.0 0.03 0.22 0.19 95 1020.1
20210921164516 67 0 1.0 4.0 0.02 0.21 0.18 96 1020.1
20210921163516 67 0.0 1.0 0.03 0.21 0.18 96 1020.1
20210921162517 67 0.0 4.0 0.03 0.20 0.17 96 1020.2
20210921161517 67 0.0 1.0 0.04 0.20 0.17 96 1020.2
20210921160519 67 0.0 2.0 0.04 0.20 0.17 96 1020.2
20210921155516 67 0 1.0 4.0 0.03 0.19 0.16 96 1020.3
20210921154519 67 0 1.0 4.0 0.04 0.19 0.16 96 1020.4
20210921153516 67 0.0 3.0 0.05 0.18 0.15 96 1020.5
20210921152517 66 0.0 1.0 0.06 0.17 0.14 96 1020.6
20210921151518 66 0.0 2.0 0.05 0.16 0.13 96 1020.6
20210921150517 66 0 1.0 3.0 0.06 0.16 0.13 95 1020.6
20210921145517 66 0.0 3.0 0.06 0.16 0.13 96 1020.6
20210921144516 66 0 1.0 2.0 0.05 0.15 0.12 96 1020.6
20210921143516 66 0 1.0 5.0 0.04 0.13 0.10 96 1020.5
20210921142523 66 0 1.0 3.0 0.02 0.11 0.08 96 1020.5
20210921141518 66 0.0 2.0 0.02 0.11 0.08 95 1020.5
20210921140518 66 0.0 2.0 0.01 0.10 0.07 95 1020.5
20210921135516 66 0 1.0 5.0 0.01 0.10 0.07 95 1020.5
20210921134517 66 0.0 3.0 0.01 0.10 0.07 95 1020.5
20210921133517 66 0.0 1.0 0.00 0.09 0.06 95 1020.5
20210921132516 66 0 1.0 4.0 0.00 0.09 0.06 95 1020.5
20210921131516 66 0 1.0 4.0 0.00 0.09 0.06 95 1020.4
20210921130516 66 0.0 1.0 0.00 0.09 0.06 95 1020.4
20210921125516 66 0.0 1.0 0.00 0.09 0.06 95 1020.4
20210921124518 66 0.0 2.0 0.01 0.09 0.06 95 1020.4
20210921123517 66 0.0 1.0 0.01 0.09 0.06 95 1020.3
20210921122517 65 0.0 3.0 0.01 0.09 0.06 95 1020.4
20210921121517 65 0.0 1.0 0.01 0.09 0.06 95 1020.4
20210921120516 65 0.0 2.0 0.01 0.09 0.06 95 1020.4
20210921115519 65 0.0 2.0 0.02 0.09 0.06 95 1020.3
20210921114517 65 0 1.0 2.0 0.01 0.08 0.05 95 1020.2
20210921113516 65 0.0 2.0 0.02 0.08 0.05 95 1020.1
20210921112515 65 0.0 4.0 0.03 0.08 0.05 95 1020.0
20210921111515 66 0.0 1.0 0.03 0.08 0.05 95 1019.9
20210921110517 66 0.0 1.0 0.03 0.08 0.05 95 1019.9
20210921105517 66 0.0 2.0 0.04 0.07 0.04 95 1019.9
20210921104515 66 0.0 1.0 0.04 0.07 0.04 94 1019.8
20210921103519 66 0.0 0.0 0.03 0.06 0.03 94 1019.8
20210921102517 66 0.0 0.0 0.02 0.05 0.02 93 1019.8
20210921101521 66 0.0 2.0 0.02 0.05 0.02 93 1019.6
20210921100515 66 0.0 1.0 0.02 0.05 0.02 91 1019.6
20210921095517 67 0.0 4.0 0.00 0.03 0.00 90 1019.6
20210921094515 67 0.0 2.0 0.00 0.03 0.00 88 1019.6
20210921093515 67 0.0 1.0 0.00 0.03 0.00 87 1019.6
20210921092516 68 0.0 3.0 0.00 0.03 0.00 87 1019.6
20210921091515 68 0.0 1.0 0.00 0.03 0.00 86 1019.7
20210921090517 68 0.0 3.0 0.00 0.03 0.00 86 1019.7
20210921085517 68 0.0 3.0 0.00 0.03 0.00 85 1019.6
20210921084519 68 0.0 1.0 0.00 0.03 0.00 85 1019.5
20210921083515 68 0 1.0 3.0 0.00 0.03 0.00 84 1019.5
20210921082515 68 0.0 2.0 0.00 0.03 0.00 85 1019.6
20210921081520 68 0.0 2.0 0.00 0.03 0.00 84 1019.7
20210921080515 68 0.0 3.0 0.00 0.03 0.00 84 1019.7
20210921075518 68 0.0 2.0 0.00 0.03 0.00 84 1019.8
20210921074516 68 0.0 1.0 0.00 0.03 0.00 84 1019.8
20210921073515 68 0.0 2.0 0.00 0.03 0.00 84 1019.9
20210921072517 68 0.0 0.0 0.00 0.03 0.00 84 1019.8
20210921071516 68 0.0 0.0 0.00 0.03 0.00 85 1019.8
20210921070517 68 0.0 0.0 0.00 0.03 0.00 84 1019.7
20210921065516 68 0.0 0.0 0.00 0.03 0.00 84 1019.8
20210921064519 68 0.0 1.0 0.00 0.03 0.00 84 1019.8
20210921063517 68 0.0 2.0 0.00 0.03 0.00 84 1019.8
20210921062517 68 0.0 1.0 0.00 0.03 0.00 85 1019.8
20210921061515 68 0.0 1.0 0.00 0.03 0.00 85 1019.9
20210921060515 68 0.0 1.0 0.00 0.03 0.00 86 1020.0
20210921055516 69 0.0 0.0 0.00 0.03 0.00 87 1020.2
20210921054516 69 0.0 1.0 0.00 0.03 0.00 86 1020.2
20210921053537 69 0.0 0.0 0.00 0.03 0.00 87 1020.2
20210921052517 69 0.0 1.0 0.00 0.03 0.00 88 1020.2
20210921051515 69 0.0 1.0 0.00 0.03 0.00 88 1020.3
20210921050515 69 0.0 0.0 0.00 0.03 0.00 88 1020.3
20210921045516 69 0.0 1.0 0.00 0.03 0.00 89 1020.2
20210921044515 69 0.0 2.0 0.00 0.03 0.00 89 1020.5
20210921043515 69 0.0 3.0 0.00 0.03 0.00 90 1020.4
20210921042515 69 0.0 3.0 0.00 0.03 0.00 92 1020.4
20210921041518 69 0.0 1.0 0.00 0.03 0.00 93 1020.5
20210921040515 69 0.0 1.0 0.02 0.03 0.00 93 1020.6
20210921035515 69 0.0 1.0 0.03 0.03 0.03 93 1020.6
20210921034515 70 0.0 0.0 0.03 0.03 0.03 93 1020.6
20210921033515 70 0.0 0.0 0.03 0.03 0.03 92 1020.7
20210921032516 70 0.0 0.0 0.03 0.03 0.03 91 1020.9
20210921031516 71 0.0 0.0 0.03 0.03 0.03 89 1021.0
20210921030519 71 0.0 2.0 0.01 0.01 0.01 87 1021.0
20210921025516 72 0.0 1.0 0.00 0.00 0.00 85 1020.8
20210921024521 73 135 1.0 5.0 0.00 0.00 0.00 83 1020.7
20210921023517 74 0.0 1.0 0.00 0.00 0.00 82 1020.7
20210921022517 74 0.0 2.0 0.00 0.00 0.00 80 1020.7